Onde está Águas de Peixes en Portugal?

Águas de Peixes está situado na região Beja em Portugal!

Buscar o nome de uma cidade:

Aguas Bellas, Aguas del Volcan, Agua Marsa, Agua Santa, Agua Dulce

Aqui você vai encontrar a localização de Águas de Peixes em um mapa.
Para ver como ele atualmente parece, abaixo estão algumas fotos da região, com webcams online.
Você também pode encontrar a distância para as principais cidades da região e de cidades do resto do Portugal.

Todos os lugares do mundo chamado .

new

Onde está Águas de Peixes no mapa?


Webcams perto Águas de Peixes

Comporta: Distrito de - Praia do Carvalhal°.


Comporta: Distrito de - Praia do Carvalhal° - Dia
Actual
Comporta: Distrito de - Praia do Carvalhal° - Actual

Sines Municipality: Praia de Sao Torpes.


Sines Municipality: Praia de Sao Torpes - Dia
Actual
Sines Municipality: Praia de Sao Torpes - Actual

Benavente > North-East: AIrport, METAR: BENAV 180005Z 36004KT 17/14 Q1015.


Benavente > North-East: AIrport, METAR: BENAV 180005Z 36004KT 17/14 Q1015 - Dia
Actual
Benavente > North-East: AIrport, METAR: BENAV 180005Z 36004KT 17/14 Q1015 - Actual

Webcams provided by webcams.travel

Distâncias

Onde está Águas de Peixes em relação a outros lugares?

Top 10 cidades em Beja e distância de Águas de Peixes.

Cidade#Populaçãokmmilhas
Beja1239063220
Moura293604830
Serpa365865031
Odemira458309861
Aljustrel553345031
São Teotónio6493610968
Castro Verde748576842
Ferreira do Alentejo846892918
Vila Nova de Milfontes943939760
Achada do Gamo10-8251

Top 10 cidades em Portugal e distância de Águas de Peixes.

Cidade # Populaçãokmmilhas
Lisbon151779811370
Porto2249630322200
Amadora317885612276
Braga4121393364226
Setúbal51171098553
Coimbra6106580216134
Queluz710339812477
Funchal8980411025637
Vila Nova de Gaia970810320199
Loures106623012175